createdAt,value
2017-05-31T00:00:38.149Z,0
2017-05-31T00:01:40.058Z,0
2017-05-31T00:02:41.966Z,0
2017-05-31T00:03:43.878Z,0
2017-05-31T00:04:45.721Z,0
2017-05-31T00:05:47.581Z,0
2017-05-31T00:06:49.493Z,0
2017-05-31T00:07:51.405Z,0
2017-05-31T00:08:53.515Z,0
2017-05-31T00:10:07.665Z,0
2017-05-31T00:11:09.577Z,0
2017-05-31T00:12:11.487Z,0
2017-05-31T00:13:13.398Z,0
2017-05-31T00:14:15.244Z,0
2017-05-31T00:15:17.094Z,0
2017-05-31T00:16:19.005Z,0
2017-05-31T00:17:20.920Z,0
2017-05-31T00:18:22.824Z,0
2017-05-31T00:19:37.321Z,0
2017-05-31T00:20:39.230Z,0
2017-05-31T00:21:41.138Z,0
2017-05-31T00:22:43.049Z,0
2017-05-31T00:23:44.894Z,0
2017-05-31T00:24:46.746Z,0
2017-05-31T00:25:48.657Z,0
2017-05-31T00:26:50.568Z,0
2017-05-31T00:27:52.475Z,0
2017-05-31T00:29:07.174Z,0
2017-05-31T00:30:09.083Z,0
2017-05-31T00:31:10.993Z,0
2017-05-31T00:32:12.901Z,0
2017-05-31T00:33:14.747Z,0
2017-05-31T00:34:16.595Z,0
2017-05-31T00:35:18.519Z,0
2017-05-31T00:36:20.411Z,0
2017-05-31T00:37:22.320Z,0
2017-05-31T00:38:36.471Z,0
2017-05-31T00:39:38.378Z,0
2017-05-31T00:40:40.339Z,0
2017-05-31T00:41:42.244Z,0
2017-05-31T00:42:44.092Z,0
2017-05-31T00:43:45.941Z,0
2017-05-31T00:44:47.849Z,0
2017-05-31T00:45:49.756Z,0
2017-05-31T00:46:51.666Z,0
2017-05-31T00:48:05.817Z,0
2017-05-31T00:49:07.727Z,0
2017-05-31T00:50:09.639Z,0
2017-05-31T00:51:11.655Z,0
2017-05-31T00:52:13.499Z,0
2017-05-31T00:53:15.345Z,0
2017-05-31T00:54:17.253Z,0
2017-05-31T00:55:19.163Z,0
2017-05-31T00:56:21.072Z,0
2017-05-31T00:57:35.223Z,0
2017-05-31T00:58:37.133Z,0
2017-05-31T00:59:39.043Z,0
2017-05-31T01:00:40.952Z,0
2017-05-31T01:01:42.852Z,0
2017-05-31T01:02:44.698Z,0
2017-05-31T01:03:46.606Z,0
2017-05-31T01:04:48.515Z,0
2017-05-31T01:05:50.422Z,0
2017-05-31T01:07:04.619Z,0
2017-05-31T01:08:06.529Z,0
2017-05-31T01:09:08.432Z,0
2017-05-31T01:10:10.341Z,0
2017-05-31T01:11:12.189Z,0
2017-05-31T01:12:14.037Z,0
2017-05-31T01:13:15.946Z,0
2017-05-31T01:14:17.855Z,0
2017-05-31T01:15:19.766Z,0
2017-05-31T01:16:33.966Z,0
2017-05-31T01:17:35.873Z,0
2017-05-31T01:18:37.782Z,0
2017-05-31T01:19:39.691Z,0
2017-05-31T01:20:41.541Z,0
2017-05-31T01:21:43.392Z,0
2017-05-31T01:22:45.301Z,0
2017-05-31T01:23:47.210Z,0
2017-05-31T01:24:49.122Z,0
2017-05-31T01:26:03.270Z,0
2017-05-31T01:27:05.181Z,0
2017-05-31T01:28:07.385Z,0
2017-05-31T01:29:09.295Z,0
2017-05-31T01:30:11.143Z,0
2017-05-31T01:31:12.991Z,0
2017-05-31T01:32:14.898Z,0
2017-05-31T01:33:16.911Z,0
2017-05-31T01:34:18.821Z,0
2017-05-31T01:35:32.973Z,0
2017-05-31T01:36:34.883Z,0
2017-05-31T01:37:36.792Z,0
2017-05-31T01:38:38.748Z,0
2017-05-31T01:39:40.595Z,0
2017-05-31T01:40:42.444Z,0
2017-05-31T01:41:44.351Z,0
2017-05-31T01:42:46.261Z,0
2017-05-31T01:43:48.571Z,0
2017-05-31T01:45:02.767Z,0
2017-05-31T01:46:04.677Z,0
2017-05-31T01:47:06.583Z,0
2017-05-31T01:48:08.493Z,0
2017-05-31T01:49:10.340Z,0
2017-05-31T01:50:12.191Z,0
2017-05-31T01:51:14.103Z,0
2017-05-31T01:52:16.014Z,0
2017-05-31T01:53:17.925Z,0
2017-05-31T01:54:32.427Z,0
2017-05-31T01:55:34.336Z,0
2017-05-31T01:56:36.246Z,0
2017-05-31T01:57:38.155Z,0
2017-05-31T01:58:40.001Z,0
2017-05-31T01:59:42.151Z,0
2017-05-31T02:00:44.063Z,0
2017-05-31T02:01:45.973Z,0
2017-05-31T02:02:47.883Z,0
2017-05-31T02:04:02.035Z,0
2017-05-31T02:05:03.946Z,0
2017-05-31T02:06:05.857Z,0
2017-05-31T02:07:07.770Z,0
2017-05-31T02:08:09.617Z,0
2017-05-31T02:09:11.468Z,0
2017-05-31T02:10:13.582Z,0
2017-05-31T02:11:15.491Z,0
2017-05-31T02:12:17.401Z,0
2017-05-31T02:13:31.533Z,0
2017-05-31T02:14:33.447Z,0
2017-05-31T02:15:35.713Z,0
2017-05-31T02:16:37.624Z,0
2017-05-31T02:17:39.473Z,0
2017-05-31T02:18:41.321Z,0
2017-05-31T02:19:43.234Z,0
2017-05-31T02:20:45.198Z,0
2017-05-31T02:21:47.109Z,0
2017-05-31T02:23:01.313Z,0
2017-05-31T02:24:03.223Z,0
2017-05-31T02:25:05.141Z,0
2017-05-31T02:26:07.049Z,0
2017-05-31T02:27:08.899Z,0
2017-05-31T02:28:10.747Z,0
2017-05-31T02:29:12.659Z,0
2017-05-31T02:30:14.572Z,0
2017-05-31T02:31:16.538Z,0
2017-05-31T02:32:30.690Z,0
2017-05-31T02:33:32.600Z,0
2017-05-31T02:34:34.513Z,0
2017-05-31T02:35:36.426Z,0
2017-05-31T02:36:38.526Z,0
2017-05-31T02:37:40.375Z,0
2017-05-31T02:38:42.287Z,0
2017-05-31T02:39:44.200Z,0
2017-05-31T02:40:46.615Z,0
2017-05-31T02:42:01.119Z,0
2017-05-31T02:43:03.030Z,0
2017-05-31T02:44:04.944Z,5
2017-05-31T02:45:06.858Z,5
2017-05-31T02:46:08.709Z,5
2017-05-31T02:47:10.555Z,5
2017-05-31T02:48:12.468Z,5
2017-05-31T02:49:14.380Z,5
2017-05-31T02:50:16.299Z,10
2017-05-31T02:51:30.652Z,10
2017-05-31T02:52:32.566Z,10
2017-05-31T02:53:34.479Z,10
2017-05-31T02:54:36.396Z,10
2017-05-31T02:55:38.247Z,10
2017-05-31T02:56:40.096Z,10
2017-05-31T02:57:42.012Z,15
2017-05-31T02:58:43.929Z,15
2017-05-31T02:59:45.845Z,15
2017-05-31T03:01:00.046Z,15
2017-05-31T03:02:01.959Z,15
2017-05-31T03:03:04.329Z,15
2017-05-31T03:04:06.244Z,10
2017-05-31T03:05:08.097Z,10
2017-05-31T03:06:09.953Z,10
2017-05-31T03:07:11.863Z,10
2017-05-31T03:08:13.781Z,10
2017-05-31T03:09:15.697Z,10
2017-05-31T03:10:29.850Z,10
2017-05-31T03:11:31.764Z,15
2017-05-31T03:12:33.677Z,15
2017-05-31T03:13:35.894Z,15
2017-05-31T03:14:37.748Z,15
2017-05-31T03:15:39.594Z,20
2017-05-31T03:16:41.511Z,25
2017-05-31T03:17:43.429Z,30
2017-05-31T03:18:45.344Z,25
2017-05-31T03:19:59.495Z,20
2017-05-31T03:21:01.410Z,20
2017-05-31T03:22:03.328Z,20
2017-05-31T03:23:05.247Z,20
2017-05-31T03:24:07.396Z,20
2017-05-31T03:25:09.247Z,20
2017-05-31T03:26:11.167Z,30
2017-05-31T03:27:13.080Z,35
2017-05-31T03:28:14.997Z,45
2017-05-31T03:29:29.201Z,50
2017-05-31T03:30:31.115Z,55
2017-05-31T03:31:33.033Z,55
2017-05-31T03:32:34.947Z,65
2017-05-31T03:33:36.800Z,75
2017-05-31T03:34:38.654Z,80
2017-05-31T03:35:40.569Z,90
2017-05-31T03:36:42.487Z,105
2017-05-31T03:37:44.406Z,115
2017-05-31T03:38:58.566Z,120
2017-05-31T03:40:00.483Z,125
2017-05-31T03:41:02.402Z,130
2017-05-31T03:42:04.320Z,135
2017-05-31T03:43:06.176Z,135
2017-05-31T03:44:08.030Z,145
2017-05-31T03:45:10.247Z,155
2017-05-31T03:46:12.172Z,150
2017-05-31T03:47:14.090Z,155
2017-05-31T03:48:28.254Z,175
2017-05-31T03:49:30.170Z,190
2017-05-31T03:50:32.092Z,190
2017-05-31T03:51:34.012Z,190
2017-05-31T03:52:35.868Z,195
2017-05-31T03:53:37.725Z,195
2017-05-31T03:54:39.644Z,185
2017-05-31T03:55:41.970Z,195
2017-05-31T03:56:43.884Z,185
2017-05-31T03:57:58.092Z,190
2017-05-31T03:59:00.011Z,215
2017-05-31T04:00:01.930Z,210
2017-05-31T04:01:04.051Z,215
2017-05-31T04:02:05.907Z,215
2017-05-31T04:03:07.765Z,225
2017-05-31T04:04:09.682Z,300
2017-05-31T04:05:11.603Z,315
2017-05-31T04:06:13.623Z,325
2017-05-31T04:07:27.833Z,365
2017-05-31T04:08:29.747Z,370
2017-05-31T04:09:31.666Z,365
2017-05-31T04:10:33.587Z,375
2017-05-31T04:11:35.442Z,375
2017-05-31T04:12:37.299Z,395
2017-05-31T04:13:39.176Z,400
2017-05-31T04:14:41.033Z,405
2017-05-31T04:15:42.912Z,410
2017-05-31T04:16:57.122Z,410
2017-05-31T04:17:59.043Z,420
2017-05-31T04:19:00.965Z,425
2017-05-31T04:20:02.888Z,445
2017-05-31T04:21:04.743Z,450
2017-05-31T04:22:06.949Z,475
2017-05-31T04:23:08.870Z,495
2017-05-31T04:24:10.795Z,500
2017-05-31T04:25:12.715Z,475
2017-05-31T04:26:26.873Z,450
2017-05-31T04:27:28.793Z,450
2017-05-31T04:28:30.714Z,440
2017-05-31T04:29:32.635Z,425
2017-05-31T04:30:34.494Z,395
2017-05-31T04:31:36.350Z,225
2017-05-31T04:32:38.473Z,225
2017-05-31T04:33:40.391Z,235
2017-05-31T04:34:42.312Z,255
2017-05-31T04:35:56.474Z,455
2017-05-31T04:36:58.393Z,500
2017-05-31T04:38:00.613Z,555
2017-05-31T04:39:02.533Z,570
2017-05-31T04:40:04.390Z,600
2017-05-31T04:41:06.248Z,605
2017-05-31T04:42:08.167Z,555
2017-05-31T04:43:10.191Z,525
2017-05-31T04:44:12.112Z,530
2017-05-31T04:45:26.271Z,555
2017-05-31T04:46:28.191Z,570
2017-05-31T04:47:30.113Z,585
2017-05-31T04:48:32.035Z,605
2017-05-31T04:49:33.892Z,570
2017-05-31T04:50:35.750Z,540
2017-05-31T04:51:37.673Z,560
2017-05-31T04:52:39.592Z,565
2017-05-31T04:53:41.512Z,610
2017-05-31T04:54:55.673Z,655
2017-05-31T04:55:57.594Z,695
2017-05-31T04:56:59.515Z,780
2017-05-31T04:58:01.434Z,785
2017-05-31T04:59:03.742Z,715
2017-05-31T05:00:05.600Z,535
2017-05-31T05:01:07.519Z,605
2017-05-31T05:02:09.444Z,440
2017-05-31T05:03:11.362Z,470
2017-05-31T05:04:25.520Z,480
2017-05-31T05:05:27.441Z,505
2017-05-31T05:06:29.362Z,555
2017-05-31T05:07:31.284Z,620
2017-05-31T05:08:33.142Z,635
2017-05-31T05:09:35.197Z,570
2017-05-31T05:10:37.118Z,500
2017-05-31T05:11:39.042Z,460
2017-05-31T05:12:40.961Z,450
2017-05-31T05:13:55.178Z,435
2017-05-31T05:14:57.093Z,355
2017-05-31T05:15:59.014Z,330
2017-05-31T05:17:00.939Z,280
2017-05-31T05:18:02.794Z,260
2017-05-31T05:19:04.654Z,270
2017-05-31T05:20:06.929Z,295
2017-05-31T05:21:08.854Z,470
2017-05-31T05:22:10.773Z,625
2017-05-31T05:23:24.983Z,565
2017-05-31T05:24:26.903Z,520
2017-05-31T05:25:29.126Z,465
2017-05-31T05:26:31.049Z,465
2017-05-31T05:27:32.909Z,485
2017-05-31T05:28:34.762Z,475
2017-05-31T05:29:36.684Z,425
2017-05-31T05:30:38.603Z,410
2017-05-31T05:31:40.527Z,380
2017-05-31T05:32:54.686Z,340
2017-05-31T05:33:56.606Z,345
2017-05-31T05:34:58.526Z,340
2017-05-31T05:36:00.446Z,365
2017-05-31T05:37:02.304Z,415
2017-05-31T05:38:04.162Z,435
2017-05-31T05:39:06.080Z,430
2017-05-31T05:40:08.005Z,400
2017-05-31T05:41:10.219Z,440
2017-05-31T05:42:24.428Z,535
2017-05-31T05:43:26.348Z,610
2017-05-31T05:44:28.269Z,670
2017-05-31T05:45:30.189Z,690
2017-05-31T05:46:32.145Z,650
2017-05-31T05:47:34.001Z,600
2017-05-31T05:48:35.921Z,600
2017-05-31T05:49:37.844Z,645
2017-05-31T05:50:39.765Z,630
2017-05-31T05:51:54.218Z,660
2017-05-31T05:52:56.137Z,665
2017-05-31T05:53:58.057Z,650
2017-05-31T05:54:59.981Z,600
2017-05-31T05:56:01.839Z,605
2017-05-31T05:57:03.698Z,600
2017-05-31T05:58:05.620Z,575
2017-05-31T05:59:07.541Z,525
2017-05-31T06:00:09.466Z,475
2017-05-31T06:01:23.972Z,485
2017-05-31T06:02:25.890Z,550
2017-05-31T06:03:27.809Z,645
2017-05-31T06:04:29.733Z,650
2017-05-31T06:05:31.640Z,625
2017-05-31T06:06:33.466Z,560
2017-05-31T06:07:35.387Z,685
2017-05-31T06:08:37.310Z,680
2017-05-31T06:09:39.232Z,565
2017-05-31T06:10:53.438Z,660
2017-05-31T06:11:55.358Z,660
2017-05-31T06:12:57.580Z,660
2017-05-31T06:13:59.505Z,595
2017-05-31T06:15:01.361Z,615
2017-05-31T06:16:03.221Z,700
2017-05-31T06:17:05.141Z,660
2017-05-31T06:18:07.063Z,665
2017-05-31T06:19:08.987Z,695
2017-05-31T06:20:23.193Z,650
2017-05-31T06:21:25.116Z,665
2017-05-31T06:22:27.034Z,650
2017-05-31T06:23:32.211Z,650
2017-05-31T06:24:34.065Z,665
2017-05-31T06:25:35.926Z,675
2017-05-31T06:26:37.845Z,615
2017-05-31T06:27:39.767Z,630
2017-05-31T06:28:41.885Z,685
2017-05-31T06:29:56.100Z,720
2017-05-31T06:30:58.022Z,715
2017-05-31T06:31:59.941Z,685
2017-05-31T06:33:01.864Z,740
2017-05-31T06:34:03.922Z,715
2017-05-31T06:35:05.783Z,675
2017-05-31T06:36:07.702Z,680
2017-05-31T06:37:09.628Z,800
2017-05-31T06:38:11.546Z,850
2017-05-31T06:39:25.706Z,785
2017-05-31T06:40:27.628Z,780
2017-05-31T06:41:29.550Z,820
2017-05-31T06:42:31.473Z,805
2017-05-31T06:43:33.333Z,810
2017-05-31T06:44:35.192Z,715
2017-05-31T06:45:37.110Z,640
2017-05-31T06:46:39.035Z,585
2017-05-31T06:47:40.955Z,545
2017-05-31T06:48:55.366Z,725
2017-05-31T06:49:57.288Z,740
2017-05-31T06:50:59.211Z,760
2017-05-31T06:52:01.133Z,695
2017-05-31T06:53:02.991Z,740
2017-05-31T06:54:04.850Z,790
2017-05-31T06:55:06.769Z,755
2017-05-31T06:56:08.693Z,720
2017-05-31T06:57:10.616Z,745
2017-05-31T06:58:24.777Z,750
2017-05-31T06:59:26.698Z,775
2017-05-31T07:00:28.819Z,730
2017-05-31T07:01:30.740Z,700
2017-05-31T07:02:32.599Z,660
2017-05-31T07:03:34.454Z,645
2017-05-31T07:04:36.379Z,615
2017-05-31T07:05:38.399Z,565
2017-05-31T07:06:40.323Z,495
2017-05-31T07:07:54.483Z,425
2017-05-31T07:08:56.402Z,415
2017-05-31T07:09:58.323Z,415
2017-05-31T07:11:00.244Z,420
2017-05-31T07:12:02.107Z,420
2017-05-31T07:13:03.959Z,415
2017-05-31T07:14:05.879Z,410
2017-05-31T07:15:07.800Z,400
2017-05-31T07:16:09.718Z,440
2017-05-31T07:17:23.928Z,480
2017-05-31T07:18:25.848Z,515
2017-05-31T07:19:27.771Z,500
2017-05-31T07:20:29.696Z,465
2017-05-31T07:21:31.851Z,455
2017-05-31T07:22:33.707Z,455
2017-05-31T07:23:35.595Z,480
2017-05-31T07:24:37.506Z,545
2017-05-31T07:25:39.423Z,550
2017-05-31T07:26:53.781Z,695
2017-05-31T07:27:55.700Z,650
2017-05-31T07:28:57.622Z,615
2017-05-31T07:29:59.543Z,445
2017-05-31T07:31:01.398Z,420
2017-05-31T07:32:03.257Z,505
2017-05-31T07:33:05.178Z,470
2017-05-31T07:34:07.102Z,430
2017-05-31T07:35:09.022Z,560
2017-05-31T07:36:23.430Z,625
2017-05-31T07:37:25.349Z,570
2017-05-31T07:38:27.269Z,610
2017-05-31T07:39:29.193Z,680
2017-05-31T07:40:31.051Z,705
2017-05-31T07:41:32.911Z,655
2017-05-31T07:42:34.932Z,640
2017-05-31T07:43:36.856Z,640
2017-05-31T07:44:38.774Z,545
2017-05-31T07:45:52.936Z,545
2017-05-31T07:46:54.855Z,530
2017-05-31T07:47:57.279Z,615
2017-05-31T07:48:59.213Z,725
2017-05-31T07:50:01.070Z,730
2017-05-31T07:51:02.927Z,630
2017-05-31T07:52:04.846Z,640
2017-05-31T07:53:06.766Z,670
2017-05-31T07:54:08.685Z,680
2017-05-31T07:55:22.845Z,555
2017-05-31T07:56:24.764Z,535
2017-05-31T07:57:26.684Z,625
2017-05-31T07:58:31.658Z,695
2017-05-31T07:59:33.515Z,715
2017-05-31T08:00:35.372Z,635
2017-05-31T08:01:37.297Z,610
2017-05-31T08:02:39.217Z,695
2017-05-31T08:03:41.238Z,665
2017-05-31T08:04:55.448Z,705
2017-05-31T08:05:57.369Z,655
2017-05-31T08:06:59.290Z,600
2017-05-31T08:08:01.212Z,615
2017-05-31T08:09:03.070Z,710
2017-05-31T08:10:04.928Z,755
2017-05-31T08:11:06.849Z,730
2017-05-31T08:12:08.776Z,630
2017-05-31T08:13:10.694Z,630
2017-05-31T08:14:24.851Z,595
2017-05-31T08:15:26.770Z,685
2017-05-31T08:16:28.693Z,615
2017-05-31T08:17:30.615Z,595
2017-05-31T08:18:32.473Z,560
2017-05-31T08:19:34.432Z,430
2017-05-31T08:20:36.353Z,385
2017-05-31T08:21:38.276Z,375
2017-05-31T08:22:40.199Z,415
2017-05-31T08:23:54.657Z,400
2017-05-31T08:24:56.577Z,450
2017-05-31T08:25:58.500Z,520
2017-05-31T08:27:00.422Z,515
2017-05-31T08:28:02.280Z,590
2017-05-31T08:29:04.134Z,575
2017-05-31T08:30:06.055Z,560
2017-05-31T08:31:07.975Z,590
2017-05-31T08:32:09.894Z,520
2017-05-31T08:33:24.105Z,410
2017-05-31T08:34:26.025Z,425
2017-05-31T08:35:27.948Z,545
2017-05-31T08:36:29.870Z,580
2017-05-31T08:37:31.727Z,600
2017-05-31T08:38:33.583Z,635
2017-05-31T08:39:35.502Z,645
2017-05-31T08:40:37.830Z,620
2017-05-31T08:41:39.746Z,660
2017-05-31T08:42:53.955Z,630
2017-05-31T08:43:55.874Z,620
2017-05-31T08:44:57.797Z,555
2017-05-31T08:45:59.720Z,465
2017-05-31T08:47:01.579Z,540
2017-05-31T08:48:03.437Z,630
2017-05-31T08:49:05.360Z,670
2017-05-31T08:50:07.280Z,655
2017-05-31T08:51:09.202Z,575
2017-05-31T08:52:23.411Z,515
2017-05-31T08:53:25.331Z,445
2017-05-31T08:54:27.251Z,355
2017-05-31T08:55:29.173Z,355
2017-05-31T08:56:31.030Z,380
2017-05-31T08:57:32.891Z,420
2017-05-31T08:58:34.811Z,485
2017-05-31T08:59:36.733Z,555
2017-05-31T09:00:38.657Z,605
2017-05-31T09:01:52.918Z,700
2017-05-31T09:02:54.837Z,665
2017-05-31T09:03:56.758Z,645
2017-05-31T09:04:58.680Z,735
2017-05-31T09:06:00.538Z,735
2017-05-31T09:07:02.396Z,680
2017-05-31T09:08:04.316Z,740
2017-05-31T09:09:06.234Z,640
2017-05-31T09:10:08.154Z,635
2017-05-31T09:11:22.314Z,695
2017-05-31T09:12:24.234Z,730
2017-05-31T09:13:26.155Z,735
2017-05-31T09:14:28.077Z,805
2017-05-31T09:15:29.933Z,855
2017-05-31T09:16:31.792Z,850
2017-05-31T09:17:34.014Z,755
2017-05-31T09:18:35.934Z,745
2017-05-31T09:19:37.858Z,720
2017-05-31T09:20:52.068Z,665
2017-05-31T09:21:53.990Z,620
2017-05-31T09:22:56.111Z,655
2017-05-31T09:23:58.032Z,625
2017-05-31T09:24:59.891Z,520
2017-05-31T09:26:01.749Z,455
2017-05-31T09:27:03.671Z,490
2017-05-31T09:28:05.692Z,565
2017-05-31T09:29:07.615Z,595
2017-05-31T09:30:21.774Z,685
2017-05-31T09:31:23.694Z,735
2017-05-31T09:32:25.620Z,725
2017-05-31T09:33:27.537Z,695
2017-05-31T09:34:29.392Z,750
2017-05-31T09:35:31.251Z,835
2017-05-31T09:36:33.173Z,890
2017-05-31T09:37:35.093Z,925
2017-05-31T09:38:37.017Z,945
2017-05-31T09:39:51.182Z,925
2017-05-31T09:40:53.101Z,890
2017-05-31T09:41:55.023Z,855
2017-05-31T09:42:56.946Z,830
2017-05-31T09:43:58.805Z,790
2017-05-31T09:45:00.660Z,805
2017-05-31T09:46:02.580Z,815
2017-05-31T09:47:04.504Z,785
2017-05-31T09:48:06.424Z,760
2017-05-31T09:49:20.884Z,775
2017-05-31T09:50:22.809Z,805
2017-05-31T09:51:24.730Z,790
2017-05-31T09:52:26.653Z,810
2017-05-31T09:53:28.509Z,840
2017-05-31T09:54:30.369Z,825
2017-05-31T09:55:32.251Z,825
2017-05-31T09:56:34.109Z,830
2017-05-31T09:57:35.968Z,825
2017-05-31T09:58:50.130Z,865
2017-05-31T09:59:52.051Z,860
2017-05-31T10:00:53.974Z,845
2017-05-31T10:01:55.899Z,885
2017-05-31T10:02:57.756Z,890
2017-05-31T10:03:59.614Z,865
2017-05-31T10:05:01.536Z,785
2017-05-31T10:06:03.458Z,775
2017-05-31T10:07:05.382Z,785
2017-05-31T10:08:19.543Z,675
2017-05-31T10:09:21.466Z,590
2017-05-31T10:10:23.687Z,625
2017-05-31T10:11:25.611Z,645
2017-05-31T10:12:27.469Z,675
2017-05-31T10:13:29.326Z,645
2017-05-31T10:14:31.246Z,575
2017-05-31T10:15:33.166Z,585
2017-05-31T10:16:35.087Z,620
2017-05-31T10:17:49.297Z,675
2017-05-31T10:18:51.219Z,665
2017-05-31T10:19:53.140Z,670
2017-05-31T10:20:58.266Z,625
2017-05-31T10:22:00.125Z,595
2017-05-31T10:23:01.983Z,635
2017-05-31T10:24:03.903Z,665
2017-05-31T10:25:05.823Z,655
2017-05-31T10:26:07.748Z,640
2017-05-31T10:27:21.958Z,630
2017-05-31T10:28:23.880Z,595
2017-05-31T10:29:25.800Z,560
2017-05-31T10:30:27.724Z,555
2017-05-31T10:31:29.584Z,580
2017-05-31T10:32:31.440Z,565
2017-05-31T10:33:33.360Z,590
2017-05-31T10:34:35.282Z,635
2017-05-31T10:35:37.205Z,675
2017-05-31T10:36:51.566Z,680
2017-05-31T10:37:53.486Z,620
2017-05-31T10:38:55.407Z,505
2017-05-31T10:39:57.329Z,420
2017-05-31T10:40:59.188Z,430
2017-05-31T10:42:01.245Z,475
2017-05-31T10:43:03.169Z,530
2017-05-31T10:44:05.091Z,570
2017-05-31T10:45:07.015Z,545
2017-05-31T10:46:21.223Z,495
2017-05-31T10:47:23.145Z,505
2017-05-31T10:48:25.068Z,550
2017-05-31T10:49:26.990Z,545
2017-05-31T10:50:28.848Z,545
2017-05-31T10:51:30.708Z,580
2017-05-31T10:52:32.630Z,620
2017-05-31T10:53:34.552Z,665
2017-05-31T10:54:36.477Z,715
2017-05-31T10:55:50.633Z,635
2017-05-31T10:56:52.552Z,540
2017-05-31T10:57:54.775Z,535
2017-05-31T10:58:56.698Z,585
2017-05-31T10:59:58.555Z,615
2017-05-31T11:01:00.412Z,555
2017-05-31T11:02:02.331Z,525
2017-05-31T11:03:04.453Z,545
2017-05-31T11:04:06.374Z,565
2017-05-31T11:05:20.536Z,530
2017-05-31T11:06:22.473Z,490
2017-05-31T11:07:24.374Z,455
2017-05-31T11:08:26.296Z,500
2017-05-31T11:09:28.153Z,540
2017-05-31T11:10:30.011Z,510
2017-05-31T11:11:31.933Z,440
2017-05-31T11:12:33.852Z,365
2017-05-31T11:13:36.122Z,345
2017-05-31T11:14:50.333Z,325
2017-05-31T11:15:52.254Z,290
2017-05-31T11:16:54.175Z,280
2017-05-31T11:17:56.099Z,285
2017-05-31T11:18:57.955Z,285
2017-05-31T11:19:59.812Z,315
2017-05-31T11:21:01.733Z,325
2017-05-31T11:22:03.655Z,355
2017-05-31T11:23:05.576Z,365
2017-05-31T11:24:19.737Z,390
2017-05-31T11:25:21.654Z,445
2017-05-31T11:26:23.584Z,525
2017-05-31T11:27:25.494Z,590
2017-05-31T11:28:27.350Z,630
2017-05-31T11:29:32.307Z,720
2017-05-31T11:30:34.226Z,735
2017-05-31T11:31:36.144Z,635
2017-05-31T11:32:38.063Z,520
2017-05-31T11:33:52.468Z,505
2017-05-31T11:34:54.391Z,545
2017-05-31T11:35:56.311Z,625
2017-05-31T11:36:58.232Z,690
2017-05-31T11:38:00.088Z,665
2017-05-31T11:39:01.947Z,635
2017-05-31T11:40:04.216Z,595
2017-05-31T11:41:06.138Z,615
2017-05-31T11:42:08.059Z,615
2017-05-31T11:43:22.265Z,625
2017-05-31T11:44:24.185Z,610
2017-05-31T11:45:26.506Z,575
2017-05-31T11:46:28.425Z,555
2017-05-31T11:47:30.279Z,525
2017-05-31T11:48:32.137Z,520
2017-05-31T11:49:34.056Z,530
2017-05-31T11:50:35.974Z,455
2017-05-31T11:51:37.896Z,470
2017-05-31T11:52:52.106Z,485
2017-05-31T11:53:54.023Z,540
2017-05-31T11:54:55.941Z,515
2017-05-31T11:55:57.859Z,415
2017-05-31T11:56:59.717Z,410
2017-05-31T11:58:01.574Z,425
2017-05-31T11:59:03.489Z,495
2017-05-31T12:00:05.406Z,560
2017-05-31T12:01:07.626Z,605
2017-05-31T12:02:21.787Z,590
2017-05-31T12:03:23.703Z,590
2017-05-31T12:04:25.622Z,615
2017-05-31T12:05:27.537Z,640
2017-05-31T12:06:29.396Z,675
2017-05-31T12:07:31.249Z,645
2017-05-31T12:08:33.163Z,595
2017-05-31T12:09:35.086Z,545
2017-05-31T12:10:37.003Z,535
2017-05-31T12:11:51.161Z,465
2017-05-31T12:12:53.079Z,400
2017-05-31T12:13:54.999Z,370
2017-05-31T12:14:56.918Z,365
2017-05-31T12:15:58.776Z,380
2017-05-31T12:17:00.632Z,410
2017-05-31T12:18:02.553Z,430
2017-05-31T12:19:04.476Z,410
2017-05-31T12:20:06.381Z,365
2017-05-31T12:21:20.765Z,355
2017-05-31T12:22:22.623Z,335
2017-05-31T12:23:24.479Z,355
2017-05-31T12:24:26.397Z,370
2017-05-31T12:25:28.316Z,370
2017-05-31T12:26:30.215Z,380
2017-05-31T12:27:32.267Z,370
2017-05-31T12:28:34.124Z,400
2017-05-31T12:29:36.039Z,425
2017-05-31T12:30:50.308Z,430
2017-05-31T12:31:52.224Z,420
2017-05-31T12:32:54.141Z,435
2017-05-31T12:33:56.059Z,505
2017-05-31T12:34:57.917Z,530
2017-05-31T12:35:59.773Z,460
2017-05-31T12:37:01.690Z,430
2017-05-31T12:38:03.610Z,345
2017-05-31T12:39:05.526Z,305
2017-05-31T12:40:19.689Z,295
2017-05-31T12:41:21.607Z,300
2017-05-31T12:42:23.527Z,315
2017-05-31T12:43:25.543Z,310
2017-05-31T12:44:27.399Z,305
2017-05-31T12:45:29.254Z,310
2017-05-31T12:46:31.172Z,305
2017-05-31T12:47:33.087Z,305
2017-05-31T12:48:35.004Z,305
2017-05-31T12:49:49.167Z,300
2017-05-31T12:50:51.081Z,300
2017-05-31T12:51:52.996Z,300
2017-05-31T12:52:54.913Z,300
2017-05-31T12:53:56.780Z,305
2017-05-31T12:54:58.639Z,295
2017-05-31T12:56:00.557Z,295
2017-05-31T12:57:02.478Z,290
2017-05-31T12:58:04.391Z,295
2017-05-31T12:59:18.749Z,290
2017-05-31T13:00:20.665Z,295
2017-05-31T13:01:22.585Z,300
2017-05-31T13:02:24.499Z,305
2017-05-31T13:03:26.356Z,305
2017-05-31T13:04:28.209Z,305
2017-05-31T13:05:30.128Z,305
2017-05-31T13:06:32.045Z,310
2017-05-31T13:07:33.963Z,335
2017-05-31T13:08:48.123Z,345
2017-05-31T13:09:50.037Z,380
2017-05-31T13:10:51.952Z,415
2017-05-31T13:11:53.870Z,390
2017-05-31T13:12:55.725Z,360
2017-05-31T13:13:57.579Z,400
2017-05-31T13:14:59.495Z,435
2017-05-31T13:16:01.412Z,435
2017-05-31T13:17:03.329Z,410
2017-05-31T13:18:17.485Z,350
2017-05-31T13:19:19.400Z,355
2017-05-31T13:20:21.568Z,350
2017-05-31T13:21:23.486Z,360
2017-05-31T13:22:25.342Z,380
2017-05-31T13:23:27.195Z,355
2017-05-31T13:24:29.111Z,345
2017-05-31T13:25:31.027Z,330
2017-05-31T13:26:32.947Z,365
2017-05-31T13:27:47.105Z,385
2017-05-31T13:28:49.027Z,380
2017-05-31T13:29:50.940Z,405
2017-05-31T13:30:52.856Z,430
2017-05-31T13:31:54.713Z,435
2017-05-31T13:32:56.568Z,445
2017-05-31T13:33:58.489Z,480
2017-05-31T13:35:00.407Z,425
2017-05-31T13:36:02.525Z,405
2017-05-31T13:37:16.682Z,425
2017-05-31T13:38:18.597Z,425
2017-05-31T13:39:20.513Z,425
2017-05-31T13:40:22.431Z,500
2017-05-31T13:41:24.291Z,525
2017-05-31T13:42:26.147Z,530
2017-05-31T13:43:28.065Z,535
2017-05-31T13:44:29.983Z,535
2017-05-31T13:45:31.901Z,535
2017-05-31T13:46:46.111Z,470
2017-05-31T13:47:48.027Z,455
2017-05-31T13:48:49.945Z,450
2017-05-31T13:49:51.862Z,420
2017-05-31T13:50:53.719Z,410
2017-05-31T13:51:55.579Z,410
2017-05-31T13:52:57.492Z,400
2017-05-31T13:53:59.415Z,400
2017-05-31T13:55:01.330Z,405
2017-05-31T13:56:18.741Z,395
2017-05-31T13:57:20.659Z,400
2017-05-31T13:58:22.578Z,410
2017-05-31T13:59:24.497Z,420
2017-05-31T14:00:26.354Z,430
2017-05-31T14:01:28.211Z,470
2017-05-31T14:02:30.129Z,505
2017-05-31T14:03:32.045Z,505
2017-05-31T14:04:33.960Z,470
2017-05-31T14:05:48.119Z,435
2017-05-31T14:06:50.034Z,430
2017-05-31T14:07:51.952Z,440
2017-05-31T14:08:53.868Z,495
2017-05-31T14:09:55.727Z,505
2017-05-31T14:10:57.580Z,530
2017-05-31T14:11:59.504Z,570
2017-05-31T14:13:01.618Z,605
2017-05-31T14:14:03.536Z,645
2017-05-31T14:15:17.696Z,595
2017-05-31T14:16:19.613Z,580
2017-05-31T14:17:21.533Z,585
2017-05-31T14:18:23.530Z,585
2017-05-31T14:19:25.377Z,550
2017-05-31T14:20:27.232Z,505
2017-05-31T14:21:29.150Z,480
2017-05-31T14:22:31.069Z,510
2017-05-31T14:23:33.089Z,530
2017-05-31T14:24:47.247Z,540
2017-05-31T14:25:49.164Z,575
2017-05-31T14:26:51.084Z,615
2017-05-31T14:27:53.001Z,640
2017-05-31T14:28:55.175Z,610
2017-05-31T14:29:56.989Z,540
2017-05-31T14:30:58.908Z,515
2017-05-31T14:32:00.826Z,530
2017-05-31T14:33:02.804Z,535
2017-05-31T14:34:16.974Z,550
2017-05-31T14:35:18.892Z,535
2017-05-31T14:36:20.811Z,510
2017-05-31T14:37:22.730Z,495
2017-05-31T14:38:24.589Z,495
2017-05-31T14:39:26.449Z,495
2017-05-31T14:40:28.363Z,490
2017-05-31T14:41:30.278Z,465
2017-05-31T14:42:32.195Z,450
2017-05-31T14:43:46.557Z,415
2017-05-31T14:44:48.474Z,435